Time;durP1;ratioP1;P1;durP2;ratioP2;P2;SDS_P1;SDS_P2;PMS_P1;PMS_P2;Temp;Humidity;BMP_temperature;BMP_pressure;BME280_temperature;BME280_humidity;BME280_pressure;Samples;Min_cycle;Max_cycle;Signal;HPM_P1;HPM_P2
2023/06/01 00:01:27;;;;;;;;;;;19.10;63.20;;;;;;5062576;28;1282;-69
2023/06/01 00:03:52;;;;;;;;;;;19.10;63.20;;;;;;5061424;28;1357;-69
2023/06/01 00:06:17;;;;;;;;;;;19.00;63.10;;;;;;5058598;28;955;-69
2023/06/01 00:08:43;;;;;;;;;;;19.00;63.20;;;;;;5057686;28;1898;-69
2023/06/01 00:11:08;;;;;;;;;;;19.10;63.20;;;;;;5059313;28;1063;-69
2023/06/01 00:13:34;;;;;;;;;;;19.00;63.20;;;;;;5059943;28;1283;-69
2023/06/01 00:15:59;;;;;;;;;;;19.00;63.20;;;;;;5042844;28;1463;-69
2023/06/01 00:18:27;;;;;;;;;;;19.00;63.20;;;;;;5059820;28;792;-69
2023/06/01 00:20:53;;;;;;;;;;;19.10;63.30;;;;;;5060652;28;891;-69
2023/06/01 00:23:19;;;;;;;;;;;19.10;63.30;;;;;;5058647;28;1382;-69
2023/06/01 00:25:45;;;;;;;;;;;19.00;64.00;;;;;;5060910;28;851;-69
2023/06/01 00:28:11;;;;;;;;;;;19.10;63.30;;;;;;5059451;28;1953;-69
2023/06/01 00:30:36;;;;;;;;;;;19.00;63.20;;;;;;5059515;28;887;-69
2023/06/01 00:33:01;;;;;;;;;;;19.10;63.40;;;;;;5058017;28;1334;-69
2023/06/01 00:35:27;;;;;;;;;;;19.00;63.30;;;;;;5057537;28;1495;-69
2023/06/01 00:37:52;;;;;;;;;;;19.10;63.40;;;;;;5059049;28;804;-68
2023/06/01 00:40:18;;;;;;;;;;;19.10;64.10;;;;;;5060548;28;922;-69
2023/06/01 00:42:43;;;;;;;;;;;19.00;63.40;;;;;;5057919;28;1205;-69
2023/06/01 00:45:09;;;;;;;;;;;19.00;63.40;;;;;;5061081;28;854;-69
2023/06/01 00:47:37;;;;;;;;;;;19.00;63.40;;;;;;5057189;28;1906;-69
2023/06/01 00:50:02;;;;;;;;;;;19.10;63.40;;;;;;5055512;28;868;-69
2023/06/01 00:52:28;;;;;;;;;;;19.10;63.50;;;;;;5057874;28;1398;-69
2023/06/01 00:54:53;;;;;;;;;;;19.00;64.10;;;;;;5056628;28;1070;-69
2023/06/01 00:57:20;;;;;;;;;;;19.10;63.50;;;;;;5058834;28;805;-69
2023/06/01 00:59:47;;;;;;;;;;;19.00;63.40;;;;;;5052831;28;859;-69
2023/06/01 01:02:15;;;;;;;;;;;19.00;63.50;;;;;;5056605;28;1378;-69
2023/06/01 01:04:41;;;;;;;;;;;19.10;63.50;;;;;;5060475;28;879;-69
2023/06/01 01:07:20;;;;;;;;;;;19.00;63.40;;;;;;5060740;28;879;-69
2023/06/01 01:10:15;;;;;;;;;;;19.00;63.50;;;;;;5056725;28;907;-69
2023/06/01 01:12:58;;;;;;;;;;;19.00;63.50;;;;;;5013774;28;1301;-69
2023/06/01 01:15:26;;;;;;;;;;;19.00;63.50;;;;;;5056775;28;889;-68
2023/06/01 01:17:54;;;;;;;;;;;19.00;63.50;;;;;;5058535;28;875;-69
2023/06/01 01:20:23;;;;;;;;;;;19.00;63.50;;;;;;5041282;28;1512;-70
2023/06/01 01:23:09;;;;;;;;;;;19.10;63.60;;;;;;5054963;28;1252;-69
2023/06/01 01:25:38;;;;;;;;;;;19.00;63.50;;;;;;5066257;28;1413;-69
2023/06/01 01:28:18;;;;;;;;;;;19.00;63.50;;;;;;5059927;28;1898;-69
2023/06/01 01:30:44;;;;;;;;;;;19.10;63.60;;;;;;5052677;28;899;-70
2023/06/01 01:33:09;;;;;;;;;;;19.00;63.60;;;;;;5057858;28;1398;-69
2023/06/01 01:35:35;;;;;;;;;;;19.00;63.60;;;;;;5057010;28;1738;-69
2023/06/01 01:38:00;;;;;;;;;;;19.10;63.70;;;;;;5057467;28;853;-69
2023/06/01 01:40:26;;;;;;;;;;;19.00;63.60;;;;;;5056630;28;902;-69
2023/06/01 01:42:51;;;;;;;;;;;19.00;63.60;;;;;;5066039;28;1224;-69
2023/06/01 01:45:17;;;;;;;;;;;19.00;63.60;;;;;;5057979;28;896;-69
2023/06/01 01:47:51;;;;;;;;;;;19.00;63.60;;;;;;5058042;28;1969;-69
2023/06/01 01:50:16;;;;;;;;;;;19.10;63.70;;;;;;5057728;28;815;-69
2023/06/01 01:52:42;;;;;;;;;;;19.00;63.60;;;;;;5047057;28;1361;-69
2023/06/01 01:55:08;;;;;;;;;;;19.00;63.70;;;;;;5056476;28;1010;-69
2023/06/01 01:57:34;;;;;;;;;;;19.00;63.70;;;;;;5061739;28;846;-68
2023/06/01 02:00:00;;;;;;;;;;;19.10;63.80;;;;;;5057556;28;859;-69
2023/06/01 02:02:25;;;;;;;;;;;19.00;63.70;;;;;;5057997;28;1273;-69
2023/06/01 02:04:51;;;;;;;;;;;19.00;63.70;;;;;;5059304;28;910;-69
2023/06/01 02:07:16;;;;;;;;;;;19.00;63.70;;;;;;5065863;28;875;-69
2023/06/01 02:09:42;;;;;;;;;;;19.00;63.70;;;;;;5061949;28;1988;-69
2023/06/01 02:12:07;;;;;;;;;;;19.00;63.70;;;;;;5058808;28;1374;-69
2023/06/01 02:14:33;;;;;;;;;;;19.00;63.80;;;;;;5062009;28;1024;-68
2023/06/01 02:17:00;;;;;;;;;;;19.00;63.80;;;;;;5070246;28;907;-68
2023/06/01 02:19:26;;;;;;;;;;;19.00;63.70;;;;;;5061146;28;792;-69
2023/06/01 02:21:51;;;;;;;;;;;19.00;63.70;;;;;;5062951;28;816;-69
2023/06/01 02:24:17;;;;;;;;;;;19.00;63.80;;;;;;5065568;28;1326;-69
2023/06/01 02:26:43;;;;;;;;;;;19.00;63.80;;;;;;5057890;28;832;-69
2023/06/01 02:29:08;;;;;;;;;;;19.00;63.80;;;;;;5061053;28;1959;-69
2023/06/01 02:31:34;;;;;;;;;;;19.00;63.80;;;;;;5061627;28;859;-69
2023/06/01 02:34:00;;;;;;;;;;;19.00;63.80;;;;;;5060661;28;1436;-69
2023/06/01 02:36:26;;;;;;;;;;;19.00;63.80;;;;;;5059880;28;870;-68
2023/06/01 02:38:51;;;;;;;;;;;19.00;63.80;;;;;;5057727;28;863;-68
2023/06/01 02:41:17;;;;;;;;;;;19.10;63.90;;;;;;5059532;28;923;-68
2023/06/01 02:43:42;;;;;;;;;;;19.10;63.90;;;;;;5061050;28;1269;-69
2023/06/01 02:46:08;;;;;;;;;;;19.00;63.80;;;;;;5059602;28;893;-69
2023/06/01 02:48:33;;;;;;;;;;;19.10;63.90;;;;;;5063258;28;1902;-68
2023/06/01 02:50:58;;;;;;;;;;;19.10;63.90;;;;;;5058888;28;856;-69
2023/06/01 02:53:27;;;;;;;;;;;19.00;63.90;;;;;;5060205;28;1277;-68
2023/06/01 02:55:52;;;;;;;;;;;19.10;64.00;;;;;;5059840;28;917;-69
2023/06/01 02:58:18;;;;;;;;;;;19.00;63.90;;;;;;5060469;28;963;-68
2023/06/01 03:00:43;;;;;;;;;;;19.10;64.00;;;;;;5058393;28;770;-69
2023/06/01 03:03:09;;;;;;;;;;;19.00;64.00;;;;;;5058628;28;1337;-69
2023/06/01 03:05:35;;;;;;;;;;;19.10;64.00;;;;;;5058652;28;844;-69
2023/06/01 03:08:01;;;;;;;;;;;19.10;64.00;;;;;;5061991;28;1914;-69
2023/06/01 03:10:26;;;;;;;;;;;19.00;64.00;;;;;;5062332;28;840;-68
2023/06/01 03:12:52;;;;;;;;;;;19.10;64.10;;;;;;5057345;28;1361;-68
2023/06/01 03:15:17;;;;;;;;;;;19.10;64.10;;;;;;5061933;28;891;-69
2023/06/01 03:17:43;;;;;;;;;;;19.10;64.10;;;;;;5058971;28;1200;-69
2023/06/01 03:20:14;;;;;;;;;;;19.00;64.00;;;;;;5058930;28;998;-69
2023/06/01 03:22:45;;;;;;;;;;;19.00;64.00;;;;;;5058026;28;1268;-68
2023/06/01 03:25:12;;;;;;;;;;;19.00;64.00;;;;;;5055093;28;887;-68
2023/06/01 03:27:38;;;;;;;;;;;19.10;64.10;;;;;;5061933;28;1956;-69
2023/06/01 03:30:03;;;;;;;;;;;19.00;64.00;;;;;;5059399;28;935;-68
2023/06/01 03:32:29;;;;;;;;;;;19.00;64.00;;;;;;5066763;28;1362;-68
2023/06/01 03:34:55;;;;;;;;;;;19.10;64.10;;;;;;5067931;28;1404;-68
2023/06/01 03:37:20;;;;;;;;;;;19.00;64.00;;;;;;5059958;28;860;-68
2023/06/01 03:39:47;;;;;;;;;;;19.00;64.00;;;;;;5058925;28;851;-69
2023/06/01 03:42:12;;;;;;;;;;;19.00;64.00;;;;;;5060859;28;1276;-69
2023/06/01 03:44:39;;;;;;;;;;;19.00;64.10;;;;;;5059245;28;939;-69
2023/06/01 03:47:04;;;;;;;;;;;19.00;64.10;;;;;;5068008;28;860;-69
2023/06/01 03:49:30;;;;;;;;;;;19.00;64.10;;;;;;5062604;28;1922;-69
2023/06/01 03:51:56;;;;;;;;;;;19.00;64.10;;;;;;5059169;28;799;-69
2023/06/01 03:54:21;;;;;;;;;;;19.00;64.10;;;;;;5059461;28;1189;-69
2023/06/01 03:56:46;;;;;;;;;;;19.00;64.10;;;;;;5062239;28;808;-69
2023/06/01 03:59:12;;;;;;;;;;;19.00;64.10;;;;;;5061411;28;866;-69
2023/06/01 04:01:39;;;;;;;;;;;19.10;64.20;;;;;;5060157;28;951;-69
2023/06/01 04:04:05;;;;;;;;;;;19.10;64.20;;;;;;5057106;28;1295;-69
2023/06/01 04:06:35;;;;;;;;;;;19.00;64.20;;;;;;5060599;28;864;-69
2023/06/01 04:09:06;;;;;;;;;;;19.00;64.10;;;;;;5061344;28;1971;-69
2023/06/01 04:11:32;;;;;;;;;;;19.10;64.20;;;;;;5057506;28;913;-69
2023/06/01 04:13:57;;;;;;;;;;;19.00;64.20;;;;;;5057937;28;1247;-69
2023/06/01 04:16:23;;;;;;;;;;;19.00;64.20;;;;;;5058208;28;801;-69
2023/06/01 04:18:48;;;;;;;;;;;19.10;64.30;;;;;;5059071;28;879;-69
2023/06/01 04:21:14;;;;;;;;;;;19.00;64.20;;;;;;5057051;28;864;-69
2023/06/01 04:23:42;;;;;;;;;;;19.00;64.20;;;;;;5059466;28;1228;-69
2023/06/01 04:26:07;;;;;;;;;;;19.10;64.30;;;;;;5056054;28;816;-69
2023/06/01 04:28:33;;;;;;;;;;;19.00;64.20;;;;;;5060196;28;1905;-68
2023/06/01 04:30:58;;;;;;;;;;;19.00;64.20;;;;;;5054504;28;1906;-68
2023/06/01 04:33:24;;;;;;;;;;;19.10;64.30;;;;;;5061076;28;1410;-68
2023/06/01 04:35:52;;;;;;;;;;;19.10;64.30;;;;;;5060429;28;1345;-69
2023/06/01 04:38:18;;;;;;;;;;;19.00;64.30;;;;;;5059059;28;807;-71
2023/06/01 04:40:46;;;;;;;;;;;19.00;64.30;;;;;;5061747;28;961;-69
2023/06/01 04:43:12;;;;;;;;;;;19.00;64.30;;;;;;5058073;28;1241;-69
2023/06/01 04:45:38;;;;;;;;;;;19.00;64.30;;;;;;5055921;28;849;-70
2023/06/01 04:48:09;;;;;;;;;;;19.00;64.30;;;;;;5058467;28;1967;-69
2023/06/01 04:50:35;;;;;;;;;;;19.00;64.30;;;;;;5055762;28;902;-69
2023/06/01 04:53:00;;;;;;;;;;;19.10;64.40;;;;;;5059990;28;1286;-70
2023/06/01 04:55:26;;;;;;;;;;;19.00;64.30;;;;;;5058015;28;862;-71
2023/06/01 04:57:52;;;;;;;;;;;19.00;64.30;;;;;;5066572;28;842;-71
2023/06/01 05:00:18;;;;;;;;;;;19.00;64.30;;;;;;5067246;28;958;-71
2023/06/01 05:02:44;;;;;;;;;;;19.00;64.40;;;;;;5057530;28;1277;-71
2023/06/01 05:05:10;;;;;;;;;;;19.00;64.40;;;;;;5059284;28;852;-70
2023/06/01 05:07:36;;;;;;;;;;;19.00;64.40;;;;;;5057745;28;1963;-71
2023/06/01 05:10:05;;;;;;;;;;;19.00;64.40;;;;;;5060662;28;859;-71
2023/06/01 05:12:31;;;;;;;;;;;19.00;64.40;;;;;;5058065;28;1231;-71
2023/06/01 05:14:57;;;;;;;;;;;19.00;64.40;;;;;;5044025;28;1598;-71
2023/06/01 05:17:22;;;;;;;;;;;19.00;64.40;;;;;;5058206;28;1571;-72
2023/06/01 05:19:48;;;;;;;;;;;19.00;64.40;;;;;;5059403;28;1325;-72
2023/06/01 05:22:14;;;;;;;;;;;19.00;64.40;;;;;;5058119;28;1233;-73
2023/06/01 05:24:40;;;;;;;;;;;19.00;64.40;;;;;;5057320;28;785;-72
2023/06/01 05:27:06;;;;;;;;;;;19.00;64.40;;;;;;5061327;28;825;-72
2023/06/01 05:29:31;;;;;;;;;;;19.00;64.40;;;;;;5057914;28;1967;-72
2023/06/01 05:31:57;;;;;;;;;;;19.10;64.50;;;;;;5057818;28;1082;-69
2023/06/01 05:34:22;;;;;;;;;;;19.00;64.40;;;;;;5058762;28;1581;-71
2023/06/01 05:36:48;;;;;;;;;;;19.00;64.40;;;;;;5057193;28;802;-71
2023/06/01 05:39:14;;;;;;;;;;;19.00;64.40;;;;;;5055986;28;1319;-67
2023/06/01 05:41:40;;;;;;;;;;;19.00;64.50;;;;;;5062327;28;1138;-71
2023/06/01 05:44:06;;;;;;;;;;;19.00;64.40;;;;;;5063046;28;1355;-70
2023/06/01 05:46:31;;;;;;;;;;;19.00;64.50;;;;;;5061257;28;856;-68
2023/06/01 05:48:57;;;;;;;;;;;19.00;64.50;;;;;;5061395;28;1898;-68
2023/06/01 05:51:22;;;;;;;;;;;19.00;64.50;;;;;;5061433;28;1674;-69
2023/06/01 05:53:48;;;;;;;;;;;19.00;64.50;;;;;;5061190;28;1779;-69
2023/06/01 05:56:13;;;;;;;;;;;19.00;64.50;;;;;;5060320;28;1262;-69
2023/06/01 05:58:39;;;;;;;;;;;19.00;64.50;;;;;;5061970;28;1340;-70
2023/06/01 06:01:04;;;;;;;;;;;19.00;64.50;;;;;;5062274;28;1309;-71
2023/06/01 06:03:30;;;;;;;;;;;19.00;64.50;;;;;;5064714;28;2229;-70
2023/06/01 06:05:55;;;;;;;;;;;19.00;64.60;;;;;;5058178;28;1569;-69
2023/06/01 06:08:21;;;;;;;;;;;19.00;64.50;;;;;;5051842;28;1914;-70
2023/06/01 06:10:46;;;;;;;;;;;19.00;64.50;;;;;;5057416;28;979;-68
2023/06/01 06:13:13;;;;;;;;;;;19.00;64.50;;;;;;5060061;28;1350;-68
2023/06/01 06:15:38;;;;;;;;;;;19.00;64.60;;;;;;5060883;28;1089;-68
2023/06/01 06:18:04;;;;;;;;;;;19.10;64.60;;;;;;5061514;28;847;-67
2023/06/01 06:20:30;;;;;;;;;;;19.00;64.50;;;;;;5060964;28;824;-69
2023/06/01 06:22:55;;;;;;;;;;;19.00;64.10;;;;;;5059828;28;1252;-67
2023/06/01 06:25:21;;;;;;;;;;;19.00;63.80;;;;;;5062483;28;933;-67
2023/06/01 06:27:47;;;;;;;;;;;19.00;63.50;;;;;;5060375;28;1890;-67
2023/06/01 06:30:12;;;;;;;;;;;19.00;63.50;;;;;;5059348;28;785;-68
2023/06/01 06:32:38;;;;;;;;;;;19.10;63.20;;;;;;5060055;28;2070;-69
2023/06/01 06:35:03;;;;;;;;;;;19.00;63.10;;;;;;5048692;28;1345;-69
2023/06/01 06:37:29;;;;;;;;;;;19.00;63.00;;;;;;5058740;28;1240;-68
2023/06/01 06:39:55;;;;;;;;;;;19.00;62.90;;;;;;5063897;28;851;-68
2023/06/01 06:42:20;;;;;;;;;;;19.00;62.80;;;;;;5058607;28;1345;-69
2023/06/01 06:44:46;;;;;;;;;;;19.00;62.60;;;;;;5029556;28;4137;-66
2023/06/01 06:47:15;;;;;;;;;;;19.00;62.50;;;;;;5024878;28;4603;-66
2023/06/01 06:49:40;;;;;;;;;;;19.00;62.60;;;;;;5031302;28;1910;-67
2023/06/01 06:52:08;;;;;;;;;;;19.00;62.70;;;;;;5026765;28;2001;-68
2023/06/01 06:54:33;;;;;;;;;;;19.00;62.40;;;;;;5032520;28;904;-66
2023/06/01 06:56:59;;;;;;;;;;;19.00;62.30;;;;;;5031416;28;871;-69
2023/06/01 06:59:24;;;;;;;;;;;19.00;62.10;;;;;;5030823;28;871;-67
2023/06/01 07:01:50;;;;;;;;;;;19.00;62.10;;;;;;5030302;28;911;-67
2023/06/01 07:04:15;;;;;;;;;;;19.00;62.10;;;;;;5030283;28;1380;-69
2023/06/01 07:06:41;;;;;;;;;;;19.00;62.30;;;;;;5031182;28;1618;-68
2023/06/01 07:09:08;;;;;;;;;;;19.00;62.90;;;;;;5031220;28;1910;-67
2023/06/01 07:11:34;;;;;;;;;;;19.00;62.30;;;;;;5031321;28;879;-67
2023/06/01 07:13:59;;;;;;;;;;;19.00;62.50;;;;;;5028644;28;1443;-69
2023/06/01 07:16:25;;;;;;;;;;;19.00;62.30;;;;;;5029392;28;1016;-68
2023/06/01 07:18:51;;;;;;;;;;;19.00;62.10;;;;;;5030023;28;914;-67
2023/06/01 07:21:17;;;;;;;;;;;19.00;62.00;;;;;;5032514;28;800;-68
2023/06/01 07:23:45;;;;;;;;;;;19.00;62.20;;;;;;5024195;28;1347;-69
2023/06/01 07:26:11;;;;;;;;;;;19.00;62.40;;;;;;5028361;28;1379;-69
2023/06/01 07:28:36;;;;;;;;;;;19.00;62.60;;;;;;5026286;28;1955;-70
2023/06/01 07:31:02;;;;;;;;;;;19.00;62.90;;;;;;5029868;28;1564;-69
2023/06/01 07:33:28;;;;;;;;;;;19.10;63.20;;;;;;5028285;28;1368;-68
2023/06/01 07:35:54;;;;;;;;;;;19.10;63.30;;;;;;5025627;28;909;-67
2023/06/01 07:38:20;;;;;;;;;;;19.10;63.60;;;;;;5028723;28;913;-69
2023/06/01 07:40:45;;;;;;;;;;;19.10;63.60;;;;;;5030711;28;820;-68
2023/06/01 07:43:11;;;;;;;;;;;19.20;63.70;;;;;;5030482;28;1225;-69
2023/06/01 07:45:36;;;;;;;;;;;19.20;63.80;;;;;;5029068;28;1286;-69
2023/06/01 07:48:02;;;;;;;;;;;19.20;63.90;;;;;;5030385;28;1898;-69
2023/06/01 07:50:30;;;;;;;;;;;19.20;63.90;;;;;;5029241;28;825;-69
2023/06/01 07:52:57;;;;;;;;;;;19.20;64.00;;;;;;5029695;28;1284;-69
2023/06/01 07:55:23;;;;;;;;;;;19.20;64.10;;;;;;5025911;28;865;-69
2023/06/01 07:57:48;;;;;;;;;;;19.20;64.10;;;;;;5027111;28;1239;-69
2023/06/01 08:00:17;;;;;;;;;;;19.20;64.20;;;;;;5026980;28;999;-68
2023/06/01 08:02:42;;;;;;;;;;;19.20;64.30;;;;;;5029309;28;1263;-69
2023/06/01 08:05:09;;;;;;;;;;;19.20;64.50;;;;;;5028493;28;1386;-69
2023/06/01 08:07:35;;;;;;;;;;;19.20;64.70;;;;;;5028080;28;1918;-70
2023/06/01 08:10:01;;;;;;;;;;;19.20;64.70;;;;;;5029779;28;879;-69
2023/06/01 08:12:26;;;;;;;;;;;19.20;64.80;;;;;;5030395;28;1342;-69
2023/06/01 08:14:52;;;;;;;;;;;19.20;64.80;;;;;;5028558;28;852;-68
2023/06/01 08:17:18;;;;;;;;;;;19.20;64.90;;;;;;5028978;28;1524;-69
2023/06/01 08:19:44;;;;;;;;;;;19.20;64.90;;;;;;5026854;28;1274;-69
2023/06/01 08:22:11;;;;;;;;;;;19.30;65.00;;;;;;5024942;28;1261;-69
2023/06/01 08:24:37;;;;;;;;;;;19.30;65.00;;;;;;5027432;28;816;-69
2023/06/01 08:27:05;;;;;;;;;;;19.30;65.10;;;;;;5029140;28;816;-68
2023/06/01 08:29:31;;;;;;;;;;;19.30;65.10;;;;;;5028831;28;1898;-69
2023/06/01 08:31:59;;;;;;;;;;;19.30;65.20;;;;;;5026822;28;836;-69
2023/06/01 08:34:24;;;;;;;;;;;19.30;65.20;;;;;;5028534;28;1452;-69
2023/06/01 08:36:50;;;;;;;;;;;19.30;65.30;;;;;;5030050;28;908;-69
2023/06/01 08:39:22;;;;;;;;;;;19.30;65.40;;;;;;5029416;28;811;-69
2023/06/01 08:41:53;;;;;;;;;;;19.30;65.40;;;;;;5027794;28;813;-69
2023/06/01 08:44:20;;;;;;;;;;;19.30;65.40;;;;;;5026970;28;1274;-69
2023/06/01 08:46:45;;;;;;;;;;;19.30;65.50;;;;;;5025093;28;954;-70
2023/06/01 08:49:10;;;;;;;;;;;19.30;65.50;;;;;;5028219;28;1910;-69
2023/06/01 08:51:37;;;;;;;;;;;19.30;65.60;;;;;;5028272;28;924;-69
2023/06/01 08:54:03;;;;;;;;;;;19.30;65.60;;;;;;5017966;28;1263;-70
2023/06/01 08:56:29;;;;;;;;;;;19.30;65.70;;;;;;5026909;28;943;-69
2023/06/01 08:58:54;;;;;;;;;;;19.30;65.70;;;;;;5023424;28;1403;-70
2023/06/01 09:01:21;;;;;;;;;;;19.30;65.70;;;;;;5029177;28;833;-69
2023/06/01 09:03:47;;;;;;;;;;;19.30;65.80;;;;;;5028357;28;1401;-69
2023/06/01 09:06:12;;;;;;;;;;;19.30;65.90;;;;;;5029170;28;939;-70
2023/06/01 09:08:38;;;;;;;;;;;19.40;66.10;;;;;;5017213;28;4284;-70
2023/06/01 09:11:03;;;;;;;;;;;19.40;66.10;;;;;;5024488;28;4195;-70
2023/06/01 09:13:36;;;;;;;;;;;19.40;66.10;;;;;;5028740;28;1532;-70
2023/06/01 09:16:01;;;;;;;;;;;19.40;66.10;;;;;;5029288;28;1454;-70
2023/06/01 09:18:27;;;;;;;;;;;19.40;66.10;;;;;;5029927;28;2164;-69
2023/06/01 09:20:53;;;;;;;;;;;19.40;66.00;;;;;;5028506;28;1502;-70
2023/06/01 09:23:23;;;;;;;;;;;19.40;66.00;;;;;;5028411;28;1673;-70
2023/06/01 09:25:48;;;;;;;;;;;19.40;66.10;;;;;;5026879;28;928;-69
2023/06/01 09:28:14;;;;;;;;;;;19.40;66.10;;;;;;5027769;28;1918;-70
2023/06/01 09:30:42;;;;;;;;;;;19.40;66.10;;;;;;5027226;28;831;-69
2023/06/01 09:33:15;;;;;;;;;;;19.40;66.10;;;;;;5026799;28;1436;-70
2023/06/01 09:35:42;;;;;;;;;;;19.40;66.50;;;;;;5027045;28;1195;-70
2023/06/01 09:38:07;;;;;;;;;;;19.50;66.40;;;;;;5021420;28;864;-70
2023/06/01 09:40:33;;;;;;;;;;;19.50;66.60;;;;;;5027717;28;790;-70
2023/06/01 09:42:59;;;;;;;;;;;19.50;66.40;;;;;;5029604;28;1376;-70
2023/06/01 09:45:24;;;;;;;;;;;19.50;66.30;;;;;;5019054;28;880;-69
2023/06/01 09:47:50;;;;;;;;;;;19.50;66.40;;;;;;5029550;28;1963;-69
2023/06/01 09:50:35;;;;;;;;;;;19.50;67.20;;;;;;5026268;28;899;-70
2023/06/01 09:53:00;;;;;;;;;;;19.50;66.40;;;;;;5022928;28;1200;-69
2023/06/01 09:55:26;;;;;;;;;;;19.50;66.40;;;;;;5027625;28;864;-68
2023/06/01 09:57:51;;;;;;;;;;;19.50;66.40;;;;;;5012698;28;5668;-69
2023/06/01 10:00:24;;;;;;;;;;;19.50;66.70;;;;;;5029293;28;1857;-70
2023/06/01 10:02:50;;;;;;;;;;;19.50;66.70;;;;;;5025420;28;1622;-69
2023/06/01 10:05:16;;;;;;;;;;;19.50;66.70;;;;;;5026739;28;903;-68
2023/06/01 10:07:41;;;;;;;;;;;19.50;66.80;;;;;;5025414;28;1902;-69
2023/06/01 10:10:07;;;;;;;;;;;19.50;66.80;;;;;;5027936;28;829;-69
2023/06/01 10:12:32;;;;;;;;;;;19.50;67.40;;;;;;5024607;28;1383;-69
2023/06/01 10:14:58;;;;;;;;;;;19.50;66.70;;;;;;5028118;28;825;-69
2023/06/01 10:17:23;;;;;;;;;;;19.50;66.80;;;;;;5015149;28;967;-69
2023/06/01 10:19:49;;;;;;;;;;;19.50;66.80;;;;;;5028282;28;1097;-70
2023/06/01 10:22:14;;;;;;;;;;;19.50;66.80;;;;;;5025353;28;1397;-70
2023/06/01 10:24:43;;;;;;;;;;;19.50;66.90;;;;;;5007630;28;875;-70
2023/06/01 10:27:15;;;;;;;;;;;19.50;66.80;;;;;;5026603;28;836;-70
2023/06/01 10:29:41;;;;;;;;;;;19.50;66.90;;;;;;5031976;28;1973;-69
2023/06/01 10:32:27;;;;;;;;;;;19.50;66.90;;;;;;5023641;28;1276;-70
2023/06/01 10:34:53;;;;;;;;;;;19.50;67.00;;;;;;5027563;28;1578;-70
2023/06/01 10:37:18;;;;;;;;;;;19.50;67.00;;;;;;5029971;28;902;-70
2023/06/01 10:39:44;;;;;;;;;;;19.50;67.00;;;;;;5030259;28;829;-70
2023/06/01 10:42:12;;;;;;;;;;;19.50;67.10;;;;;;5030031;28;1342;-70
2023/06/01 10:44:40;;;;;;;;;;;19.50;67.00;;;;;;5028096;28;987;-70
2023/06/01 10:47:06;;;;;;;;;;;19.50;67.00;;;;;;5028931;28;878;-70
2023/06/01 10:49:47;;;;;;;;;;;19.50;67.10;;;;;;5027508;28;1954;-70
2023/06/01 10:52:34;;;;;;;;;;;19.50;67.10;;;;;;5028302;28;1355;-70
2023/06/01 10:55:05;;;;;;;;;;;19.50;67.10;;;;;;5030338;28;847;-70
2023/06/01 10:57:31;;;;;;;;;;;19.50;67.10;;;;;;5032000;28;805;-70
2023/06/01 11:00:15;;;;;;;;;;;19.50;67.20;;;;;;5029211;28;845;-70
2023/06/01 11:02:50;;;;;;;;;;;19.50;67.20;;;;;;5028490;28;1267;-70
2023/06/01 11:05:38;;;;;;;;;;;19.50;67.30;;;;;;5031280;28;839;-70
2023/06/01 11:08:04;;;;;;;;;;;19.50;67.50;;;;;;5030566;28;1902;-69
2023/06/01 11:10:48;;;;;;;;;;;19.50;67.50;;;;;;5028822;28;872;-69
2023/06/01 11:13:19;;;;;;;;;;;19.50;67.40;;;;;;5027894;28;1366;-69
2023/06/01 11:16:03;;;;;;;;;;;19.60;67.80;;;;;;5029822;28;834;-69
2023/06/01 11:18:57;;;;;;;;;;;19.60;67.90;;;;;;5030243;28;953;-69
2023/06/01 11:21:24;;;;;;;;;;;19.60;67.80;;;;;;5029217;28;828;-68
2023/06/01 11:23:50;;;;;;;;;;;19.60;67.90;;;;;;5030756;28;1366;-69
2023/06/01 11:26:16;;;;;;;;;;;19.60;67.80;;;;;;5029926;28;867;-69
2023/06/01 11:28:42;;;;;;;;;;;19.60;67.80;;;;;;5029016;28;1910;-69
2023/06/01 11:31:11;;;;;;;;;;;19.60;67.70;;;;;;5025159;28;900;-69
2023/06/01 11:33:37;;;;;;;;;;;19.60;67.70;;;;;;5025910;28;1393;-70
2023/06/01 11:36:05;;;;;;;;;;;19.60;67.80;;;;;;5029620;28;975;-70
2023/06/01 11:38:34;;;;;;;;;;;19.60;67.90;;;;;;5029000;28;840;-69
2023/06/01 11:41:01;;;;;;;;;;;19.60;68.10;;;;;;5025520;28;834;-69
2023/06/01 11:43:29;;;;;;;;;;;19.60;68.10;;;;;;5027633;28;1296;-69
2023/06/01 11:46:04;;;;;;;;;;;19.60;68.00;;;;;;5029350;28;929;-69
2023/06/01 11:48:30;;;;;;;;;;;19.60;68.00;;;;;;5029832;28;1957;-69
2023/06/01 11:50:55;;;;;;;;;;;19.60;68.00;;;;;;5027688;28;840;-69
2023/06/01 11:53:21;;;;;;;;;;;19.70;68.00;;;;;;5032527;28;1244;-68
2023/06/01 11:55:50;;;;;;;;;;;19.70;67.90;;;;;;5030183;28;919;-69
2023/06/01 11:58:25;;;;;;;;;;;19.70;68.00;;;;;;5030555;28;830;-71
2023/06/01 12:00:50;;;;;;;;;;;19.60;67.80;;;;;;5028551;28;874;-69
2023/06/01 12:03:19;;;;;;;;;;;19.60;67.80;;;;;;5028640;28;1320;-69
2023/06/01 12:05:48;;;;;;;;;;;19.70;68.20;;;;;;5028676;28;848;-68
2023/06/01 12:08:14;;;;;;;;;;;19.70;67.90;;;;;;5027169;28;1957;-68
2023/06/01 12:10:41;;;;;;;;;;;19.70;67.00;;;;;;5027239;28;855;-69
2023/06/01 12:13:07;;;;;;;;;;;19.60;66.30;;;;;;5028636;28;1354;-68
2023/06/01 12:15:32;;;;;;;;;;;19.70;66.00;;;;;;5031115;28;819;-70
2023/06/01 12:17:58;;;;;;;;;;;19.70;65.70;;;;;;5029632;28;859;-68
2023/06/01 12:20:29;;;;;;;;;;;19.60;65.30;;;;;;5013379;28;1343;-68
2023/06/01 12:22:55;;;;;;;;;;;19.60;65.20;;;;;;5029621;28;1278;-68
2023/06/01 12:25:24;;;;;;;;;;;19.60;65.30;;;;;;5027898;28;783;-69
2023/06/01 12:28:10;;;;;;;;;;;19.60;65.00;;;;;;5028679;28;1894;-68
2023/06/01 12:30:36;;;;;;;;;;;19.60;65.10;;;;;;5029715;28;1085;-68
2023/06/01 12:33:04;;;;;;;;;;;19.60;65.10;;;;;;5027407;28;1273;-69
2023/06/01 12:35:30;;;;;;;;;;;19.60;64.90;;;;;;5030502;28;1350;-68
2023/06/01 12:38:09;;;;;;;;;;;19.60;64.70;;;;;;5028284;28;797;-69
2023/06/01 12:40:35;;;;;;;;;;;19.60;64.40;;;;;;5027600;28;2132;-72
2023/06/01 12:43:01;;;;;;;;;;;19.60;64.10;;;;;;5026830;28;1351;-69
2023/06/01 12:45:36;;;;;;;;;;;19.60;64.40;;;;;;5024847;28;1940;-67
2023/06/01 12:48:01;;;;;;;;;;;19.50;64.40;;;;;;5028688;28;1953;-67
2023/06/01 12:50:27;;;;;;;;;;;19.60;64.60;;;;;;5025783;28;1313;-67
2023/06/01 12:52:52;;;;;;;;;;;19.50;64.30;;;;;;5025356;28;1361;-70
2023/06/01 12:55:19;;;;;;;;;;;19.50;64.30;;;;;;5027384;28;1335;-72
2023/06/01 12:57:51;;;;;;;;;;;19.50;64.40;;;;;;5028998;28;1301;-71
2023/06/01 13:00:17;;;;;;;;;;;19.50;64.30;;;;;;5024954;28;1265;-71
2023/06/01 13:02:42;;;;;;;;;;;19.50;63.90;;;;;;5026498;28;1275;-70
2023/06/01 13:05:08;;;;;;;;;;;19.50;64.10;;;;;;5026834;28;1327;-70
2023/06/01 13:07:35;;;;;;;;;;;19.50;64.00;;;;;;5024583;28;1195;-70
2023/06/01 13:10:02;;;;;;;;;;;19.50;63.50;;;;;;5029655;28;1910;-67
2023/06/01 13:12:27;;;;;;;;;;;19.50;63.10;;;;;;5030045;28;1299;-69
2023/06/01 13:14:53;;;;;;;;;;;19.50;63.10;;;;;;5031962;28;844;-70
2023/06/01 13:17:18;;;;;;;;;;;19.50;63.00;;;;;;5029725;28;962;-70
2023/06/01 13:19:44;;;;;;;;;;;19.50;62.00;;;;;;5022194;28;1365;-69
2023/06/01 13:22:10;;;;;;;;;;;19.50;62.30;;;;;;5029405;28;1386;-68
2023/06/01 13:24:36;;;;;;;;;;;19.50;62.40;;;;;;5026958;28;813;-68
2023/06/01 13:27:04;;;;;;;;;;;19.50;62.10;;;;;;5028646;28;827;-68
2023/06/01 13:29:30;;;;;;;;;;;19.50;62.30;;;;;;5023264;28;1898;-70
2023/06/01 13:31:55;;;;;;;;;;;19.50;62.60;;;;;;5027775;28;1003;-70
2023/06/01 13:34:22;;;;;;;;;;;19.50;62.50;;;;;;5027755;28;1255;-67
2023/06/01 13:36:49;;;;;;;;;;;19.60;62.40;;;;;;5026769;28;832;-69
2023/06/01 13:39:14;;;;;;;;;;;19.60;62.40;;;;;;5017003;28;844;-67
2023/06/01 13:41:40;;;;;;;;;;;19.60;62.40;;;;;;5025635;28;1393;-69
2023/06/01 13:44:06;;;;;;;;;;;19.60;62.90;;;;;;5027124;28;1341;-70
2023/06/01 13:46:31;;;;;;;;;;;19.60;63.00;;;;;;5028627;28;1601;-70
2023/06/01 13:48:58;;;;;;;;;;;19.60;62.50;;;;;;5028517;28;1898;-69
2023/06/01 13:51:23;;;;;;;;;;;19.60;63.00;;;;;;5027599;28;1290;-69
2023/06/01 13:53:49;;;;;;;;;;;19.60;62.40;;;;;;5026233;28;1684;-70
2023/06/01 13:56:14;;;;;;;;;;;19.60;62.20;;;;;;5027853;28;836;-71
2023/06/01 13:58:40;;;;;;;;;;;19.60;62.40;;;;;;5021534;28;804;-68
2023/06/01 14:01:06;;;;;;;;;;;19.60;62.30;;;;;;5028961;28;916;-67
2023/06/01 14:03:31;;;;;;;;;;;19.60;62.40;;;;;;5032565;28;1389;-67
2023/06/01 14:05:56;;;;;;;;;;;19.50;63.00;;;;;;5030812;28;904;-69
2023/06/01 14:08:22;;;;;;;;;;;19.50;63.20;;;;;;5031461;28;1906;-68
2023/06/01 14:10:47;;;;;;;;;;;19.50;63.20;;;;;;5031344;28;801;-68
2023/06/01 14:13:13;;;;;;;;;;;19.50;63.50;;;;;;5031457;28;1345;-69
2023/06/01 14:15:38;;;;;;;;;;;19.50;63.60;;;;;;5031169;28;863;-67
2023/06/01 14:18:04;;;;;;;;;;;19.50;63.70;;;;;;5030771;28;824;-67
2023/06/01 14:20:30;;;;;;;;;;;19.50;63.60;;;;;;5031956;28;1397;-68
2023/06/01 14:22:55;;;;;;;;;;;19.50;63.50;;;;;;5029752;28;1952;-68
2023/06/01 14:25:21;;;;;;;;;;;19.50;63.30;;;;;;5030914;28;1224;-67
2023/06/01 14:27:46;;;;;;;;;;;19.50;61.90;;;;;;5031152;28;1918;-67
2023/06/01 14:30:12;;;;;;;;;;;19.50;61.10;;;;;;5030122;28;1101;-67
2023/06/01 14:32:37;;;;;;;;;;;19.50;61.10;;;;;;5030563;28;1253;-67
2023/06/01 14:35:03;;;;;;;;;;;19.50;60.40;;;;;;5031130;28;1333;-67